createdAt,value
2022-08-17T00:00:42.958Z,22.06
2022-08-17T00:03:11.298Z,22.04
2022-08-17T00:06:07.209Z,22.06
2022-08-17T00:08:39.833Z,22.12
2022-08-17T00:11:12.498Z,22.17
2022-08-17T00:13:48.119Z,22.21
2022-08-17T00:16:55.440Z,22.24
2022-08-17T00:19:23.784Z,22.21
2022-08-17T00:22:32.060Z,22.23
2022-08-17T00:24:44.400Z,22.23
2022-08-17T00:27:12.644Z,22.16
2022-08-17T00:29:41.219Z,22.26
2022-08-17T00:33:14.210Z,22.27
2022-08-17T00:34:57.628Z,22.28
2022-08-17T00:37:25.816Z,22.26
2022-08-17T00:39:54.130Z,22.25
2022-08-17T00:42:22.360Z,22.26
2022-08-17T00:44:50.788Z,22.22
2022-08-17T00:47:19.022Z,22.15
2022-08-17T00:49:47.335Z,22.04
2022-08-17T00:52:21.855Z,21.90
2022-08-17T00:54:53.051Z,21.81
2022-08-17T00:57:33.163Z,21.75
2022-08-17T01:00:07.084Z,21.75
2022-08-17T01:02:42.712Z,21.80
2022-08-17T01:05:21.141Z,21.85
2022-08-17T01:07:53.055Z,21.88
2022-08-17T01:11:00.533Z,21.88
2022-08-17T01:13:17.096Z,21.86
2022-08-17T01:15:57.588Z,21.82
2022-08-17T01:18:27.062Z,21.84
2022-08-17T01:20:57.824Z,21.88
2022-08-17T01:23:29.004Z,21.92
2022-08-17T01:25:59.976Z,21.94
2022-08-17T01:28:36.389Z,21.92
2022-08-17T01:31:19.923Z,21.92
2022-08-17T01:33:48.167Z,21.93
2022-08-17T01:36:16.375Z,21.96
2022-08-17T01:38:44.643Z,21.98
2022-08-17T01:41:16.681Z,22.00
2022-08-17T01:43:51.163Z,21.95
2022-08-17T01:46:24.477Z,22.08
2022-08-17T01:48:53.737Z,22.09
2022-08-17T01:51:22.539Z,22.08
2022-08-17T01:53:57.657Z,22.07
2022-08-17T01:56:28.810Z,22.09
2022-08-17T01:58:57.466Z,22.12
2022-08-17T02:01:29.612Z,22.13
2022-08-17T02:04:00.462Z,22.12
2022-08-17T02:06:52.431Z,22.13
2022-08-17T02:09:23.338Z,22.14
2022-08-17T02:11:58.597Z,22.16
2022-08-17T02:14:27.238Z,22.17
2022-08-17T02:16:56.253Z,22.19
2022-08-17T02:19:24.517Z,22.19
2022-08-17T02:21:54.324Z,22.12
2022-08-17T02:25:01.115Z,22.20
2022-08-17T02:27:20.574Z,22.21
2022-08-17T02:29:48.822Z,22.21
2022-08-17T02:32:27.561Z,22.22
2022-08-17T02:35:00.333Z,22.18
2022-08-17T02:37:30.073Z,22.16
2022-08-17T02:39:59.685Z,22.13
2022-08-17T02:42:33.918Z,22.10
2022-08-17T02:45:03.168Z,22.06
2022-08-17T02:47:31.506Z,22.02
2022-08-17T02:49:59.900Z,21.98
2022-08-17T02:52:43.492Z,21.94
2022-08-17T02:55:29.909Z,21.95
2022-08-17T02:57:58.666Z,21.92
2022-08-17T03:00:34.014Z,21.91
2022-08-17T03:03:04.849Z,21.90
2022-08-17T03:05:36.122Z,21.89
2022-08-17T03:08:05.953Z,21.87
2022-08-17T03:10:34.673Z,21.85
2022-08-17T03:13:03.264Z,21.84
2022-08-17T03:15:34.350Z,21.81
2022-08-17T03:18:03.736Z,21.81
2022-08-17T03:20:33.309Z,21.79
2022-08-17T03:23:02.744Z,21.76
2022-08-17T03:25:35.517Z,21.71
2022-08-17T03:28:05.001Z,21.66
2022-08-17T03:30:34.485Z,21.58
2022-08-17T03:33:05.666Z,21.51
2022-08-17T03:35:36.625Z,21.48
2022-08-17T03:38:05.298Z,21.45
2022-08-17T03:40:34.494Z,21.42
2022-08-17T03:43:22.897Z,21.39
2022-08-17T03:46:34.004Z,21.39
2022-08-17T03:49:17.030Z,21.35
2022-08-17T03:52:03.812Z,21.19
2022-08-17T03:54:50.518Z,21.29
2022-08-17T03:57:19.416Z,21.18
2022-08-17T03:59:47.910Z,21.28
2022-08-17T04:02:20.189Z,21.29
2022-08-17T04:04:51.299Z,21.29
2022-08-17T04:07:24.361Z,21.31
2022-08-17T04:09:52.505Z,21.33
2022-08-17T04:12:23.615Z,21.37
2022-08-17T04:14:54.673Z,21.41
2022-08-17T04:17:28.562Z,21.46
2022-08-17T04:19:57.392Z,21.51
2022-08-17T04:22:31.347Z,21.52
2022-08-17T04:25:23.977Z,21.46
2022-08-17T04:27:52.453Z,21.57
2022-08-17T04:30:21.285Z,21.58
2022-08-17T04:33:06.157Z,21.58
2022-08-17T04:35:41.910Z,21.59
2022-08-17T04:38:15.907Z,21.61
2022-08-17T04:41:02.721Z,21.66
2022-08-17T04:43:33.000Z,21.73
2022-08-17T04:46:05.539Z,21.78
2022-08-17T04:48:45.904Z,21.82
2022-08-17T04:51:27.947Z,21.88
2022-08-17T04:53:59.491Z,21.91
2022-08-17T04:56:29.537Z,21.94
2022-08-17T04:59:01.449Z,22.00
2022-08-17T05:01:32.462Z,22.04
2022-08-17T05:04:33.159Z,22.09
2022-08-17T05:06:54.685Z,22.18
2022-08-17T05:09:23.005Z,22.26
2022-08-17T05:11:52.708Z,22.35
2022-08-17T05:14:32.930Z,22.45
2022-08-17T05:17:07.088Z,22.49
2022-08-17T05:19:39.550Z,22.54
2022-08-17T05:22:07.953Z,22.56
2022-08-17T05:24:42.727Z,22.60
2022-08-17T05:27:19.067Z,22.66
2022-08-17T05:29:47.481Z,22.71
2022-08-17T05:32:39.173Z,22.72
2022-08-17T05:35:05.557Z,22.68
2022-08-17T05:37:33.741Z,22.72
2022-08-17T05:40:02.066Z,22.72
2022-08-17T05:42:30.351Z,22.65
2022-08-17T05:44:59.030Z,22.75
2022-08-17T05:47:27.742Z,22.76
2022-08-17T05:49:56.414Z,22.83
2022-08-17T05:53:02.357Z,22.91
2022-08-17T05:55:42.386Z,22.99
2022-08-17T05:58:39.647Z,23.06
2022-08-17T06:01:15.939Z,23.08
2022-08-17T06:03:44.133Z,23.11
2022-08-17T06:06:40.862Z,23.18
2022-08-17T06:09:25.739Z,23.20
2022-08-17T06:12:32.814Z,23.32
2022-08-17T06:15:26.373Z,23.34
2022-08-17T06:17:58.674Z,23.47
2022-08-17T06:20:38.692Z,23.64
2022-08-17T06:23:12.314Z,23.72
2022-08-17T06:25:50.430Z,23.81
2022-08-17T06:28:30.586Z,23.90
2022-08-17T06:31:05.881Z,23.97
2022-08-17T06:33:37.682Z,24.09
2022-08-17T06:36:13.796Z,24.20
2022-08-17T06:38:53.710Z,24.27
2022-08-17T06:41:32.617Z,24.37
2022-08-17T06:44:43.390Z,24.43
2022-08-17T06:47:13.730Z,24.50
2022-08-17T06:49:44.935Z,24.52
2022-08-17T06:52:45.835Z,24.53
2022-08-17T06:55:20.401Z,24.63
2022-08-17T06:57:58.217Z,24.77
2022-08-17T07:00:47.865Z,24.70
2022-08-17T07:03:39.912Z,24.94
2022-08-17T07:06:15.108Z,24.98
2022-08-17T07:09:01.223Z,25.00
2022-08-17T07:11:36.903Z,25.03
2022-08-17T07:14:37.709Z,25.05
2022-08-17T07:17:12.260Z,25.01
2022-08-17T07:19:45.730Z,25.04
2022-08-17T07:22:16.581Z,25.06
2022-08-17T07:24:47.525Z,25.03
2022-08-17T07:27:22.165Z,25.02
2022-08-17T07:29:53.856Z,25.06
2022-08-17T07:32:27.533Z,25.10
2022-08-17T07:35:17.491Z,25.10
2022-08-17T07:38:24.857Z,25.16
2022-08-17T07:41:03.819Z,25.37
2022-08-17T07:43:38.132Z,25.46
2022-08-17T07:46:42.940Z,25.50
2022-08-17T07:49:11.343Z,25.60
2022-08-17T07:51:44.301Z,25.75
2022-08-17T07:54:15.346Z,25.93
2022-08-17T07:56:45.887Z,26.09
2022-08-17T07:59:23.198Z,26.18
2022-08-17T08:01:57.599Z,26.31
2022-08-17T08:05:00.581Z,26.41
2022-08-17T08:07:36.089Z,26.50
2022-08-17T08:10:07.209Z,26.57
2022-08-17T08:12:43.456Z,26.71
2022-08-17T08:15:19.083Z,26.89
2022-08-17T08:17:54.601Z,26.99
2022-08-17T08:20:51.556Z,26.92
2022-08-17T08:23:50.956Z,26.96
2022-08-17T08:26:39.788Z,27.10
2022-08-17T08:29:32.905Z,27.23
2022-08-17T08:32:25.743Z,27.24
2022-08-17T08:35:29.779Z,27.33
2022-08-17T08:38:20.199Z,27.51
2022-08-17T08:40:51.328Z,27.71
2022-08-17T08:43:19.531Z,27.88
2022-08-17T08:45:50.729Z,28.01
2022-08-17T08:48:56.396Z,28.18
2022-08-17T08:51:51.681Z,28.45
2022-08-17T08:54:33.798Z,28.65
2022-08-17T08:57:29.176Z,28.86
2022-08-17T09:00:20.870Z,29.07
2022-08-17T09:03:13.381Z,29.33
2022-08-17T09:06:06.953Z,29.56
2022-08-17T09:09:10.420Z,29.83
2022-08-17T09:12:01.162Z,30.15
2022-08-17T09:14:50.052Z,30.34
2022-08-17T09:17:30.211Z,30.43
2022-08-17T09:20:28.237Z,30.65
2022-08-17T09:23:08.808Z,30.91
2022-08-17T09:25:51.812Z,31.23
2022-08-17T09:28:28.177Z,31.62
2022-08-17T09:31:04.804Z,31.94
2022-08-17T09:33:40.096Z,32.23
2022-08-17T09:36:26.439Z,32.43
2022-08-17T09:39:01.807Z,32.65
2022-08-17T09:41:51.840Z,32.92
2022-08-17T09:44:36.231Z,33.15
2022-08-17T09:47:19.440Z,33.29
2022-08-17T09:49:54.388Z,33.13
2022-08-17T09:52:29.528Z,33.32
2022-08-17T09:55:01.084Z,33.37
2022-08-17T09:57:38.108Z,33.09
2022-08-17T10:00:27.618Z,32.60
2022-08-17T10:03:25.563Z,32.25
2022-08-17T10:06:07.885Z,32.15
2022-08-17T10:09:10.044Z,31.93
2022-08-17T10:12:17.355Z,31.49
2022-08-17T10:14:55.584Z,31.09
2022-08-17T10:17:30.317Z,30.82
2022-08-17T10:20:12.731Z,30.60
2022-08-17T10:23:08.293Z,30.44
2022-08-17T10:26:00.643Z,30.87
2022-08-17T10:28:36.996Z,31.41
2022-08-17T10:34:28.040Z,31.35
2022-08-17T10:37:28.667Z,31.81
2022-08-17T10:40:15.382Z,32.46
2022-08-17T10:42:50.395Z,32.78
2022-08-17T10:45:26.451Z,33.02
2022-08-17T10:48:06.167Z,32.91
2022-08-17T10:50:57.824Z,33.09
2022-08-17T10:53:31.954Z,32.98
2022-08-17T10:56:12.067Z,33.19
2022-08-17T10:58:55.447Z,33.50
2022-08-17T11:01:32.910Z,33.74
2022-08-17T11:04:18.171Z,33.63
2022-08-17T11:07:14.709Z,33.75
2022-08-17T11:10:08.698Z,33.57
2022-08-17T11:12:55.394Z,33.08
2022-08-17T11:15:59.106Z,33.09
2022-08-17T11:19:10.330Z,33.20
2022-08-17T11:21:59.726Z,33.37
2022-08-17T11:24:31.063Z,33.10
2022-08-17T11:27:12.122Z,33.37
2022-08-17T11:30:01.487Z,33.45
2022-08-17T11:32:47.492Z,32.74
2022-08-17T11:35:22.375Z,32.47
2022-08-17T11:38:16.276Z,31.62
2022-08-17T11:41:00.333Z,31.07
2022-08-17T11:43:28.415Z,30.46
2022-08-17T11:46:20.542Z,30.02
2022-08-17T11:49:32.830Z,30.02
2022-08-17T11:52:01.410Z,29.75
2022-08-17T11:54:46.472Z,29.44
2022-08-17T11:57:26.931Z,29.24
2022-08-17T11:59:58.444Z,29.50
2022-08-17T12:02:32.890Z,29.75
2022-08-17T12:05:23.175Z,29.77
2022-08-17T12:07:57.541Z,30.17
2022-08-17T12:10:32.144Z,30.06
2022-08-17T12:13:13.348Z,29.87
2022-08-17T12:15:54.184Z,29.67
2022-08-17T12:18:24.808Z,29.88
2022-08-17T12:21:30.687Z,30.53
2022-08-17T12:23:58.904Z,31.01
2022-08-17T12:26:34.085Z,30.90
2022-08-17T12:29:17.837Z,30.85
2022-08-17T12:32:02.267Z,30.68
2022-08-17T12:34:36.631Z,30.79
2022-08-17T12:37:16.396Z,30.78
2022-08-17T12:40:04.218Z,30.23
2022-08-17T12:42:37.433Z,29.70
2022-08-17T12:45:21.212Z,29.50
2022-08-17T12:47:49.586Z,29.41
2022-08-17T12:50:29.602Z,29.41
2022-08-17T12:53:02.321Z,29.23
2022-08-17T12:55:37.229Z,29.05
2022-08-17T12:58:09.872Z,28.98
2022-08-17T13:00:48.847Z,28.98
2022-08-17T13:03:21.088Z,28.97
2022-08-17T13:05:52.105Z,29.01
2022-08-17T13:08:31.772Z,29.00
2022-08-17T13:11:04.173Z,28.97
2022-08-17T13:13:35.427Z,28.96
2022-08-17T13:16:26.610Z,29.42
2022-08-17T13:19:16.735Z,30.14
2022-08-17T13:21:55.129Z,30.59
2022-08-17T13:24:38.217Z,30.83
2022-08-17T13:27:08.682Z,31.27
2022-08-17T13:29:53.603Z,31.76
2022-08-17T13:32:45.125Z,32.21
2022-08-17T13:35:40.003Z,32.46
2022-08-17T13:38:15.302Z,32.88
2022-08-17T13:40:50.813Z,33.12
2022-08-17T13:43:49.644Z,33.15
2022-08-17T13:46:26.309Z,32.86
2022-08-17T13:49:02.256Z,32.76
2022-08-17T13:51:35.256Z,32.75
2022-08-17T13:54:08.094Z,32.88
2022-08-17T13:56:50.132Z,32.73
2022-08-17T13:59:53.239Z,32.55
2022-08-17T14:02:19.936Z,32.74
2022-08-17T14:04:48.948Z,33.16
2022-08-17T14:07:18.317Z,33.45
2022-08-17T14:09:49.401Z,33.42
2022-08-17T14:12:21.733Z,33.19
2022-08-17T14:14:49.817Z,33.06
2022-08-17T14:17:19.152Z,32.79
2022-08-17T14:19:48.292Z,32.82
2022-08-17T14:22:23.808Z,32.80
2022-08-17T14:24:52.226Z,32.91
2022-08-17T14:27:21.225Z,33.29
2022-08-17T14:29:49.362Z,33.47
2022-08-17T14:32:27.173Z,33.48
2022-08-17T14:34:57.841Z,33.36
2022-08-17T14:37:28.613Z,33.27
2022-08-17T14:40:03.864Z,33.17
2022-08-17T14:42:35.227Z,33.24
2022-08-17T14:45:06.394Z,33.35
2022-08-17T14:47:54.517Z,33.54
2022-08-17T14:50:24.057Z,33.73
2022-08-17T14:52:52.367Z,33.79
2022-08-17T14:55:21.383Z,33.96
2022-08-17T14:57:49.752Z,33.91
2022-08-17T15:00:18.253Z,33.53
2022-08-17T15:02:53.904Z,32.96
2022-08-17T15:05:24.771Z,32.70
2022-08-17T15:07:54.006Z,32.26
2022-08-17T15:10:23.976Z,32.35
2022-08-17T15:12:54.588Z,32.30
2022-08-17T15:15:23.127Z,32.37
2022-08-17T15:17:51.783Z,32.53
2022-08-17T15:20:24.240Z,32.57
2022-08-17T15:22:56.230Z,32.45
2022-08-17T15:25:30.410Z,32.50
2022-08-17T15:27:59.540Z,32.51
2022-08-17T15:30:29.444Z,32.57
2022-08-17T15:32:59.580Z,32.46
2022-08-17T15:35:32.445Z,32.33
2022-08-17T15:38:11.334Z,32.16
2022-08-17T15:40:44.317Z,32.22
2022-08-17T15:43:15.615Z,32.07
2022-08-17T15:45:43.949Z,31.79
2022-08-17T15:48:14.780Z,31.77
2022-08-17T15:50:45.232Z,31.70
2022-08-17T15:53:14.304Z,31.30
2022-08-17T15:55:43.224Z,30.98
2022-08-17T15:58:11.563Z,30.88
2022-08-17T16:01:06.838Z,30.92
2022-08-17T16:03:58.047Z,30.91
2022-08-17T16:06:17.796Z,30.90
2022-08-17T16:08:46.107Z,30.78
2022-08-17T16:11:17.096Z,30.65
2022-08-17T16:13:51.300Z,30.57
2022-08-17T16:16:23.814Z,30.38
2022-08-17T16:18:56.340Z,30.22
2022-08-17T16:21:29.566Z,29.92
2022-08-17T16:24:04.141Z,29.63
2022-08-17T16:26:35.504Z,29.48
2022-08-17T16:29:06.860Z,29.33
2022-08-17T16:31:36.302Z,29.03
2022-08-17T16:34:17.304Z,28.73
2022-08-17T16:36:55.415Z,28.34
2022-08-17T16:39:29.346Z,28.28
2022-08-17T16:41:57.902Z,28.08
2022-08-17T16:44:31.016Z,28.03
2022-08-17T16:47:01.395Z,27.83
2022-08-17T16:49:36.762Z,27.73
2022-08-17T16:52:10.471Z,27.65
2022-08-17T16:54:43.813Z,27.61
2022-08-17T16:57:13.943Z,27.57
2022-08-17T16:59:44.913Z,27.51
2022-08-17T17:02:14.498Z,27.41
2022-08-17T17:05:20.830Z,27.32
2022-08-17T17:07:55.566Z,27.24
2022-08-17T17:10:30.938Z,27.17
2022-08-17T17:13:03.553Z,26.97
2022-08-17T17:15:39.809Z,26.94
2022-08-17T17:18:13.096Z,26.80
2022-08-17T17:20:59.426Z,26.70
2022-08-17T17:23:43.747Z,26.59
2022-08-17T17:26:20.113Z,26.51
2022-08-17T17:29:00.381Z,26.41
2022-08-17T17:31:38.525Z,26.33
2022-08-17T17:34:10.792Z,26.29
2022-08-17T17:36:50.856Z,26.24
2022-08-17T17:39:43.746Z,26.19
2022-08-17T17:42:20.628Z,26.11
2022-08-17T17:44:59.504Z,26.06
2022-08-17T17:47:29.704Z,25.93
2022-08-17T17:50:01.493Z,26.01
2022-08-17T17:52:41.186Z,25.97
2022-08-17T17:55:18.426Z,25.89
2022-08-17T17:57:54.586Z,25.78
2022-08-17T18:00:49.154Z,25.66
2022-08-17T18:03:23.189Z,25.55
2022-08-17T18:06:06.403Z,25.46
2022-08-17T18:08:34.828Z,25.10
2022-08-17T18:11:12.270Z,25.45
2022-08-17T18:13:58.950Z,25.44
2022-08-17T18:16:31.902Z,25.41
2022-08-17T18:19:00.604Z,25.35
2022-08-17T18:21:44.418Z,25.30
2022-08-17T18:24:13.465Z,25.25
2022-08-17T18:26:42.026Z,25.16
2022-08-17T18:29:22.418Z,25.09
2022-08-17T18:32:16.410Z,24.99
2022-08-17T18:34:48.385Z,24.88
2022-08-17T18:37:43.401Z,24.70
2022-08-17T18:40:17.951Z,24.72
2022-08-17T18:43:05.890Z,24.56
2022-08-17T18:45:34.111Z,24.61
2022-08-17T18:48:02.700Z,24.56
2022-08-17T18:50:41.501Z,24.50
2022-08-17T18:53:40.886Z,24.45
2022-08-17T18:56:20.725Z,24.40
2022-08-17T18:59:11.921Z,24.38
2022-08-17T19:01:59.853Z,24.35
2022-08-17T19:04:59.441Z,24.34
2022-08-17T19:07:32.178Z,24.34
2022-08-17T19:10:09.177Z,24.34
2022-08-17T19:12:40.330Z,24.33
2022-08-17T19:15:12.516Z,24.34
2022-08-17T19:17:46.419Z,24.35
2022-08-17T19:20:17.572Z,24.39
2022-08-17T19:22:55.941Z,24.43
2022-08-17T19:25:29.754Z,24.43
2022-08-17T19:28:22.273Z,24.40
2022-08-17T19:30:56.641Z,24.32
2022-08-17T19:33:26.311Z,24.24
2022-08-17T19:36:24.006Z,24.20
2022-08-17T19:39:26.434Z,24.18
2022-08-17T19:42:18.082Z,24.22
2022-08-17T19:44:58.930Z,24.26
2022-08-17T19:47:53.831Z,24.30
2022-08-17T19:50:41.197Z,24.34
2022-08-17T19:54:01.579Z,24.31
2022-08-17T19:56:26.900Z,24.27
2022-08-17T19:59:11.880Z,24.24
2022-08-17T20:02:01.132Z,24.14
2022-08-17T20:04:32.365Z,24.24
2022-08-17T20:07:06.451Z,24.25
2022-08-17T20:09:38.202Z,24.27
2022-08-17T20:12:18.685Z,24.28
2022-08-17T20:15:27.764Z,24.27
2022-08-17T20:18:00.109Z,24.29
2022-08-17T20:20:35.908Z,24.27
2022-08-17T20:23:31.895Z,24.28
2022-08-17T20:26:18.961Z,24.27
2022-08-17T20:29:10.449Z,24.26
2022-08-17T20:31:58.695Z,24.24
2022-08-17T20:34:33.574Z,24.21
2022-08-17T20:37:14.900Z,24.20
2022-08-17T20:40:09.293Z,24.18
2022-08-17T20:42:37.729Z,24.02
2022-08-17T20:45:21.160Z,24.03
2022-08-17T20:48:18.457Z,23.97
2022-08-17T20:50:50.734Z,23.94
2022-08-17T20:53:52.315Z,23.90
2022-08-17T20:56:43.507Z,23.87
2022-08-17T20:59:20.550Z,23.75
2022-08-17T21:02:17.664Z,23.79
2022-08-17T21:04:50.045Z,23.73
2022-08-17T21:07:43.597Z,23.65
2022-08-17T21:10:18.097Z,23.56
2022-08-17T21:12:51.542Z,23.48
2022-08-17T21:15:38.095Z,23.40
2022-08-17T21:18:18.456Z,23.34
2022-08-17T21:21:20.930Z,23.32
2022-08-17T21:24:07.033Z,23.31
2022-08-17T21:26:39.038Z,23.31
2022-08-17T21:29:31.889Z,23.31
2022-08-17T21:32:02.153Z,23.26
2022-08-17T21:34:37.285Z,23.25
2022-08-17T21:37:20.500Z,23.25
2022-08-17T21:39:51.926Z,23.24
2022-08-17T21:42:29.201Z,23.23
2022-08-17T21:45:08.114Z,23.20
2022-08-17T21:47:40.681Z,23.19
2022-08-17T21:50:25.175Z,23.19
2022-08-17T21:52:54.593Z,23.19
2022-08-17T21:55:30.291Z,23.19
2022-08-17T21:58:14.054Z,23.18
2022-08-17T22:00:46.355Z,23.15
2022-08-17T22:03:30.377Z,23.11
2022-08-17T22:05:58.518Z,23.09
2022-08-17T22:08:26.982Z,23.09
2022-08-17T22:11:02.150Z,23.08
2022-08-17T22:13:30.325Z,23.09
2022-08-17T22:16:05.900Z,23.07
2022-08-17T22:18:53.727Z,23.07
2022-08-17T22:21:22.441Z,23.02
2022-08-17T22:24:04.429Z,23.05
2022-08-17T22:27:00.395Z,23.04
2022-08-17T22:29:46.863Z,23.00
2022-08-17T22:32:38.514Z,22.87
2022-08-17T22:35:32.659Z,22.95
2022-08-17T22:38:19.103Z,22.73
2022-08-17T22:40:53.912Z,22.86
2022-08-17T22:43:26.304Z,22.84
2022-08-17T22:46:00.160Z,22.82
2022-08-17T22:48:29.091Z,22.79
2022-08-17T22:51:14.473Z,22.74
2022-08-17T22:54:07.997Z,22.74
2022-08-17T22:56:55.141Z,22.71
2022-08-17T22:59:41.949Z,22.67
2022-08-17T23:02:14.850Z,22.65
2022-08-17T23:05:16.613Z,22.55
2022-08-17T23:07:46.727Z,22.62
2022-08-17T23:10:15.498Z,22.57
2022-08-17T23:12:43.617Z,22.55
2022-08-17T23:15:16.294Z,22.52
2022-08-17T23:17:45.484Z,22.50
2022-08-17T23:20:15.739Z,22.47
2022-08-17T23:22:52.194Z,22.46
2022-08-17T23:25:31.041Z,22.46
2022-08-17T23:28:03.728Z,22.45
2022-08-17T23:30:43.422Z,22.43
2022-08-17T23:33:39.877Z,22.39
2022-08-17T23:36:09.883Z,22.34
2022-08-17T23:38:38.016Z,22.33
2022-08-17T23:41:12.269Z,22.31
2022-08-17T23:43:56.516Z,22.31
2022-08-17T23:46:25.240Z,22.30
2022-08-17T23:48:54.189Z,22.28
2022-08-17T23:51:27.528Z,22.24
2022-08-17T23:54:05.787Z,22.18
2022-08-17T23:56:44.579Z,22.10
2022-08-17T23:59:15.040Z,22.06
